sensor_id;sensor_type;location;lat;lon;timestamp;P1;durP1;ratioP1;P2;durP2;ratioP2
24090;SDS011;12272;52.426;17.100;2022-11-04T00:03:35;15.53;;;10.73;;
24090;SDS011;12272;52.426;17.100;2022-11-04T00:08:38;12.83;;;9.00;;
24090;SDS011;12272;52.426;17.100;2022-11-04T00:13:40;11.77;;;8.73;;
24090;SDS011;12272;52.426;17.100;2022-11-04T00:18:43;14.00;;;9.13;;
24090;SDS011;12272;52.426;17.100;2022-11-04T00:23:45;14.43;;;8.93;;
24090;SDS011;12272;52.426;17.100;2022-11-04T00:29:06;13.47;;;8.87;;
24090;SDS011;12272;52.426;17.100;2022-11-04T00:34:09;13.03;;;9.00;;
24090;SDS011;12272;52.426;17.100;2022-11-04T00:39:11;15.83;;;10.40;;
24090;SDS011;12272;52.426;17.100;2022-11-04T00:44:14;12.63;;;8.50;;
24090;SDS011;12272;52.426;17.100;2022-11-04T00:49:16;10.67;;;7.97;;
24090;SDS011;12272;52.426;17.100;2022-11-04T00:54:19;15.37;;;9.50;;
24090;SDS011;12272;52.426;17.100;2022-11-04T00:59:21;16.57;;;8.93;;
24090;SDS011;12272;52.426;17.100;2022-11-04T01:04:24;14.50;;;9.43;;
24090;SDS011;12272;52.426;17.100;2022-11-04T01:09:26;17.30;;;9.83;;
24090;SDS011;12272;52.426;17.100;2022-11-04T01:14:29;13.57;;;8.47;;
24090;SDS011;12272;52.426;17.100;2022-11-04T01:19:31;11.23;;;8.00;;
24090;SDS011;12272;52.426;17.100;2022-11-04T01:24:34;17.83;;;9.73;;
24090;SDS011;12272;52.426;17.100;2022-11-04T01:29:36;12.17;;;8.87;;
24090;SDS011;12272;52.426;17.100;2022-11-04T01:34:39;20.77;;;9.77;;
24090;SDS011;12272;52.426;17.100;2022-11-04T01:39:44;13.93;;;8.80;;
24090;SDS011;12272;52.426;17.100;2022-11-04T01:44:48;15.07;;;9.33;;
24090;SDS011;12272;52.426;17.100;2022-11-04T01:49:55;14.13;;;8.67;;
24090;SDS011;12272;52.426;17.100;2022-11-04T01:55:02;11.53;;;8.03;;
24090;SDS011;12272;52.426;17.100;2022-11-04T02:00:10;17.73;;;9.73;;
24090;SDS011;12272;52.426;17.100;2022-11-04T02:05:13;12.23;;;8.83;;
24090;SDS011;12272;52.426;17.100;2022-11-04T02:10:16;22.60;;;10.63;;
24090;SDS011;12272;52.426;17.100;2022-11-04T02:37:07;12.33;;;8.30;;
24090;SDS011;12272;52.426;17.100;2022-11-04T02:42:21;13.97;;;9.50;;
24090;SDS011;12272;52.426;17.100;2022-11-04T02:47:27;14.57;;;8.43;;
24090;SDS011;12272;52.426;17.100;2022-11-04T02:52:49;12.33;;;8.67;;
24090;SDS011;12272;52.426;17.100;2022-11-04T02:58:04;14.17;;;8.77;;
24090;SDS011;12272;52.426;17.100;2022-11-04T03:03:18;11.17;;;8.43;;
24090;SDS011;12272;52.426;17.100;2022-11-04T03:08:28;13.47;;;8.17;;
24090;SDS011;12272;52.426;17.100;2022-11-04T03:19:06;9.57;;;7.77;;
24090;SDS011;12272;52.426;17.100;2022-11-04T03:24:12;11.13;;;8.70;;
24090;SDS011;12272;52.426;17.100;2022-11-04T03:29:23;14.13;;;9.27;;
24090;SDS011;12272;52.426;17.100;2022-11-04T03:34:28;11.83;;;8.37;;
24090;SDS011;12272;52.426;17.100;2022-11-04T03:39:31;13.80;;;9.97;;
24090;SDS011;12272;52.426;17.100;2022-11-04T03:44:34;16.20;;;8.50;;
24090;SDS011;12272;52.426;17.100;2022-11-04T03:49:37;18.77;;;11.33;;
24090;SDS011;12272;52.426;17.100;2022-11-04T03:54:40;11.77;;;8.37;;
24090;SDS011;12272;52.426;17.100;2022-11-04T04:05:06;11.03;;;8.00;;
24090;SDS011;12272;52.426;17.100;2022-11-04T04:10:27;15.37;;;9.33;;
24090;SDS011;12272;52.426;17.100;2022-11-04T04:15:42;15.83;;;9.97;;
24090;SDS011;12272;52.426;17.100;2022-11-04T04:20:48;15.73;;;9.90;;
24090;SDS011;12272;52.426;17.100;2022-11-04T04:25:55;18.03;;;10.47;;
24090;SDS011;12272;52.426;17.100;2022-11-04T04:31:20;15.83;;;10.93;;
24090;SDS011;12272;52.426;17.100;2022-11-04T04:36:46;11.57;;;8.73;;
24090;SDS011;12272;52.426;17.100;2022-11-04T04:42:02;17.27;;;11.47;;
24090;SDS011;12272;52.426;17.100;2022-11-04T04:47:23;17.93;;;10.87;;
24090;SDS011;12272;52.426;17.100;2022-11-04T04:52:29;21.63;;;11.87;;
24090;SDS011;12272;52.426;17.100;2022-11-04T04:57:34;10.70;;;8.57;;
24090;SDS011;12272;52.426;17.100;2022-11-04T05:02:37;14.37;;;8.47;;
24090;SDS011;12272;52.426;17.100;2022-11-04T05:07:39;17.90;;;11.93;;
24090;SDS011;12272;52.426;17.100;2022-11-04T05:12:42;11.77;;;8.70;;
24090;SDS011;12272;52.426;17.100;2022-11-04T05:18:03;14.43;;;9.97;;
24090;SDS011;12272;52.426;17.100;2022-11-04T05:23:06;13.23;;;9.17;;
24090;SDS011;12272;52.426;17.100;2022-11-04T05:28:09;10.87;;;8.10;;
24090;SDS011;12272;52.426;17.100;2022-11-04T05:33:12;15.87;;;11.37;;
24090;SDS011;12272;52.426;17.100;2022-11-04T05:38:14;12.60;;;8.57;;
24090;SDS011;12272;52.426;17.100;2022-11-04T05:43:16;14.97;;;9.87;;
24090;SDS011;12272;52.426;17.100;2022-11-04T05:48:19;11.10;;;8.10;;
24090;SDS011;12272;52.426;17.100;2022-11-04T05:53:21;12.07;;;8.73;;
24090;SDS011;12272;52.426;17.100;2022-11-04T05:58:24;11.97;;;8.73;;
24090;SDS011;12272;52.426;17.100;2022-11-04T06:03:27;17.23;;;11.70;;
24090;SDS011;12272;52.426;17.100;2022-11-04T06:08:30;16.63;;;9.60;;
24090;SDS011;12272;52.426;17.100;2022-11-04T06:13:33;14.17;;;10.47;;
24090;SDS011;12272;52.426;17.100;2022-11-04T06:18:35;9.83;;;7.73;;
24090;SDS011;12272;52.426;17.100;2022-11-04T06:23:40;10.83;;;8.07;;
24090;SDS011;12272;52.426;17.100;2022-11-04T06:28:44;13.27;;;8.73;;
24090;SDS011;12272;52.426;17.100;2022-11-04T06:33:46;11.27;;;8.77;;
24090;SDS011;12272;52.426;17.100;2022-11-04T06:38:49;11.20;;;8.97;;
24090;SDS011;12272;52.426;17.100;2022-11-04T06:43:52;23.03;;;14.37;;
24090;SDS011;12272;52.426;17.100;2022-11-04T06:48:56;28.03;;;17.67;;
24090;SDS011;12272;52.426;17.100;2022-11-04T06:53:58;29.73;;;16.93;;
24090;SDS011;12272;52.426;17.100;2022-11-04T06:59:02;24.50;;;14.07;;
24090;SDS011;12272;52.426;17.100;2022-11-04T07:04:05;24.53;;;14.47;;
24090;SDS011;12272;52.426;17.100;2022-11-04T07:09:08;21.33;;;14.40;;
24090;SDS011;12272;52.426;17.100;2022-11-04T07:14:12;29.17;;;16.73;;
24090;SDS011;12272;52.426;17.100;2022-11-04T07:19:15;26.43;;;16.13;;
24090;SDS011;12272;52.426;17.100;2022-11-04T07:24:17;33.07;;;17.43;;
24090;SDS011;12272;52.426;17.100;2022-11-04T07:29:20;25.07;;;15.53;;
24090;SDS011;12272;52.426;17.100;2022-11-04T07:34:22;23.33;;;14.17;;
24090;SDS011;12272;52.426;17.100;2022-11-04T07:39:25;24.53;;;15.27;;
24090;SDS011;12272;52.426;17.100;2022-11-04T07:44:27;27.33;;;15.20;;
24090;SDS011;12272;52.426;17.100;2022-11-04T07:49:30;26.00;;;15.47;;
24090;SDS011;12272;52.426;17.100;2022-11-04T07:54:32;24.83;;;15.17;;
24090;SDS011;12272;52.426;17.100;2022-11-04T07:59:35;25.60;;;15.07;;
24090;SDS011;12272;52.426;17.100;2022-11-04T08:04:37;23.87;;;14.87;;
24090;SDS011;12272;52.426;17.100;2022-11-04T08:09:40;21.83;;;12.63;;
24090;SDS011;12272;52.426;17.100;2022-11-04T08:14:42;11.10;;;7.53;;
24090;SDS011;12272;52.426;17.100;2022-11-04T08:19:45;19.70;;;9.70;;
24090;SDS011;12272;52.426;17.100;2022-11-04T08:24:47;22.70;;;14.90;;
24090;SDS011;12272;52.426;17.100;2022-11-04T08:29:50;25.90;;;15.00;;
24090;SDS011;12272;52.426;17.100;2022-11-04T08:34:52;17.53;;;9.73;;
24090;SDS011;12272;52.426;17.100;2022-11-04T08:39:55;15.77;;;9.20;;
24090;SDS011;12272;52.426;17.100;2022-11-04T08:44:57;12.57;;;7.87;;
24090;SDS011;12272;52.426;17.100;2022-11-04T08:50:00;19.03;;;9.90;;
24090;SDS011;12272;52.426;17.100;2022-11-04T08:55:02;11.87;;;7.50;;
24090;SDS011;12272;52.426;17.100;2022-11-04T09:00:05;13.57;;;7.93;;
24090;SDS011;12272;52.426;17.100;2022-11-04T09:05:08;14.77;;;8.93;;
24090;SDS011;12272;52.426;17.100;2022-11-04T09:10:11;19.57;;;10.60;;
24090;SDS011;12272;52.426;17.100;2022-11-04T09:15:13;14.37;;;8.93;;
24090;SDS011;12272;52.426;17.100;2022-11-04T09:20:16;16.33;;;9.87;;
24090;SDS011;12272;52.426;17.100;2022-11-04T09:25:18;12.03;;;8.50;;
24090;SDS011;12272;52.426;17.100;2022-11-04T09:30:21;12.73;;;7.90;;
24090;SDS011;12272;52.426;17.100;2022-11-04T09:35:23;17.53;;;9.70;;
24090;SDS011;12272;52.426;17.100;2022-11-04T09:40:28;14.17;;;8.80;;
24090;SDS011;12272;52.426;17.100;2022-11-04T09:45:31;12.67;;;7.97;;
24090;SDS011;12272;52.426;17.100;2022-11-04T09:50:44;21.70;;;11.80;;
24090;SDS011;12272;52.426;17.100;2022-11-04T09:55:54;9.30;;;6.67;;
24090;SDS011;12272;52.426;17.100;2022-11-04T10:01:02;16.13;;;9.53;;
24090;SDS011;12272;52.426;17.100;2022-11-04T10:06:24;21.67;;;9.57;;
24090;SDS011;12272;52.426;17.100;2022-11-04T10:16:59;13.33;;;8.70;;
24090;SDS011;12272;52.426;17.100;2022-11-04T10:27:34;13.53;;;10.50;;
24090;SDS011;12272;52.426;17.100;2022-11-04T10:37:53;22.63;;;12.50;;
24090;SDS011;12272;52.426;17.100;2022-11-04T10:42:58;14.53;;;8.20;;
24090;SDS011;12272;52.426;17.100;2022-11-04T10:48:06;14.37;;;10.03;;
24090;SDS011;12272;52.426;17.100;2022-11-04T10:53:19;12.40;;;8.60;;
24090;SDS011;12272;52.426;17.100;2022-11-04T10:58:27;10.77;;;8.10;;
24090;SDS011;12272;52.426;17.100;2022-11-04T11:03:37;12.90;;;8.43;;
24090;SDS011;12272;52.426;17.100;2022-11-04T11:08:40;13.17;;;8.63;;
24090;SDS011;12272;52.426;17.100;2022-11-04T11:13:44;10.00;;;7.47;;
24090;SDS011;12272;52.426;17.100;2022-11-04T11:24:15;18.10;;;9.70;;
24090;SDS011;12272;52.426;17.100;2022-11-04T11:29:23;13.27;;;8.07;;
24090;SDS011;12272;52.426;17.100;2022-11-04T11:34:41;15.67;;;8.90;;
24090;SDS011;12272;52.426;17.100;2022-11-04T11:39:47;11.57;;;8.03;;
24090;SDS011;12272;52.426;17.100;2022-11-04T11:44:52;26.07;;;13.33;;
24090;SDS011;12272;52.426;17.100;2022-11-04T11:50:13;19.40;;;13.87;;
24090;SDS011;12272;52.426;17.100;2022-11-04T12:00:42;14.53;;;9.47;;
24090;SDS011;12272;52.426;17.100;2022-11-04T12:16:48;10.27;;;7.80;;
24090;SDS011;12272;52.426;17.100;2022-11-04T12:22:16;11.97;;;7.03;;
24090;SDS011;12272;52.426;17.100;2022-11-04T12:32:36;10.93;;;8.37;;
24090;SDS011;12272;52.426;17.100;2022-11-04T12:59:48;13.47;;;9.03;;
24090;SDS011;12272;52.426;17.100;2022-11-04T13:15:53;20.17;;;12.67;;
24090;SDS011;12272;52.426;17.100;2022-11-04T13:21:03;14.07;;;9.00;;
24090;SDS011;12272;52.426;17.100;2022-11-04T13:26:08;20.77;;;12.17;;
24090;SDS011;12272;52.426;17.100;2022-11-04T13:31:18;9.37;;;7.43;;
24090;SDS011;12272;52.426;17.100;2022-11-04T13:47:00;12.50;;;9.90;;
24090;SDS011;12272;52.426;17.100;2022-11-04T14:02:39;11.47;;;7.77;;
24090;SDS011;12272;52.426;17.100;2022-11-04T14:18:36;31.83;;;20.47;;
24090;SDS011;12272;52.426;17.100;2022-11-04T14:23:41;31.10;;;19.97;;
24090;SDS011;12272;52.426;17.100;2022-11-04T14:29:08;26.93;;;18.43;;
24090;SDS011;12272;52.426;17.100;2022-11-04T14:39:36;26.33;;;16.90;;
24090;SDS011;12272;52.426;17.100;2022-11-04T14:44:42;27.30;;;16.80;;
24090;SDS011;12272;52.426;17.100;2022-11-04T14:49:52;30.90;;;19.33;;
24090;SDS011;12272;52.426;17.100;2022-11-04T15:05:36;28.37;;;18.17;;
24090;SDS011;12272;52.426;17.100;2022-11-04T15:10:40;22.43;;;16.47;;
24090;SDS011;12272;52.426;17.100;2022-11-04T15:15:43;28.77;;;17.43;;
24090;SDS011;12272;52.426;17.100;2022-11-04T15:20:53;24.90;;;15.37;;
24090;SDS011;12272;52.426;17.100;2022-11-04T15:25:58;28.03;;;17.37;;
24090;SDS011;12272;52.426;17.100;2022-11-04T15:36:15;25.13;;;15.07;;
24090;SDS011;12272;52.426;17.100;2022-11-04T15:41:37;28.47;;;17.10;;
24090;SDS011;12272;52.426;17.100;2022-11-04T15:47:01;24.43;;;16.30;;
24090;SDS011;12272;52.426;17.100;2022-11-04T15:52:24;21.17;;;15.13;;
24090;SDS011;12272;52.426;17.100;2022-11-04T15:57:36;22.23;;;15.97;;
24090;SDS011;12272;52.426;17.100;2022-11-04T16:02:44;23.57;;;16.87;;
24090;SDS011;12272;52.426;17.100;2022-11-04T16:08:12;22.60;;;15.00;;
24090;SDS011;12272;52.426;17.100;2022-11-04T16:13:23;48.97;;;32.37;;
24090;SDS011;12272;52.426;17.100;2022-11-04T16:18:33;35.20;;;22.73;;
24090;SDS011;12272;52.426;17.100;2022-11-04T16:23:45;30.70;;;21.50;;
24090;SDS011;12272;52.426;17.100;2022-11-04T16:28:51;56.77;;;35.53;;
24090;SDS011;12272;52.426;17.100;2022-11-04T16:33:59;33.67;;;21.70;;
24090;SDS011;12272;52.426;17.100;2022-11-04T16:39:02;33.60;;;20.27;;
24090;SDS011;12272;52.426;17.100;2022-11-04T16:44:19;25.50;;;16.53;;
24090;SDS011;12272;52.426;17.100;2022-11-04T16:49:23;28.30;;;17.67;;
24090;SDS011;12272;52.426;17.100;2022-11-04T16:54:25;26.40;;;17.87;;
24090;SDS011;12272;52.426;17.100;2022-11-04T16:59:28;35.53;;;22.17;;
24090;SDS011;12272;52.426;17.100;2022-11-04T17:04:31;43.13;;;26.20;;
24090;SDS011;12272;52.426;17.100;2022-11-04T17:09:33;28.87;;;18.07;;
24090;SDS011;12272;52.426;17.100;2022-11-04T17:14:36;33.07;;;23.80;;
24090;SDS011;12272;52.426;17.100;2022-11-04T17:19:38;34.93;;;24.83;;
24090;SDS011;12272;52.426;17.100;2022-11-04T17:24:40;21.00;;;15.53;;
24090;SDS011;12272;52.426;17.100;2022-11-04T17:29:43;24.77;;;17.27;;
24090;SDS011;12272;52.426;17.100;2022-11-04T17:34:45;26.63;;;18.37;;
24090;SDS011;12272;52.426;17.100;2022-11-04T17:39:48;29.00;;;19.00;;
24090;SDS011;12272;52.426;17.100;2022-11-04T17:44:50;39.23;;;24.77;;
24090;SDS011;12272;52.426;17.100;2022-11-04T17:49:53;40.57;;;22.77;;
24090;SDS011;12272;52.426;17.100;2022-11-04T17:54:55;31.30;;;21.97;;
24090;SDS011;12272;52.426;17.100;2022-11-04T17:59:58;25.53;;;17.70;;
24090;SDS011;12272;52.426;17.100;2022-11-04T18:05:00;36.30;;;22.83;;
24090;SDS011;12272;52.426;17.100;2022-11-04T18:10:04;43.53;;;26.57;;
24090;SDS011;12272;52.426;17.100;2022-11-04T18:15:11;51.60;;;21.70;;
24090;SDS011;12272;52.426;17.100;2022-11-04T18:20:16;40.70;;;23.30;;
24090;SDS011;12272;52.426;17.100;2022-11-04T18:25:19;40.13;;;24.93;;
24090;SDS011;12272;52.426;17.100;2022-11-04T18:30:22;47.60;;;28.53;;
24090;SDS011;12272;52.426;17.100;2022-11-04T18:35:24;56.53;;;30.03;;
24090;SDS011;12272;52.426;17.100;2022-11-04T18:40:27;53.00;;;30.27;;
24090;SDS011;12272;52.426;17.100;2022-11-04T18:45:29;50.63;;;29.80;;
24090;SDS011;12272;52.426;17.100;2022-11-04T18:50:32;33.97;;;18.93;;
24090;SDS011;12272;52.426;17.100;2022-11-04T18:55:35;40.00;;;23.00;;
24090;SDS011;12272;52.426;17.100;2022-11-04T19:00:37;29.50;;;17.90;;
24090;SDS011;12272;52.426;17.100;2022-11-04T19:05:41;26.30;;;17.93;;
24090;SDS011;12272;52.426;17.100;2022-11-04T19:10:44;33.93;;;21.33;;
24090;SDS011;12272;52.426;17.100;2022-11-04T19:16:20;29.40;;;18.87;;
24090;SDS011;12272;52.426;17.100;2022-11-04T19:21:23;31.53;;;18.67;;
24090;SDS011;12272;52.426;17.100;2022-11-04T19:26:30;34.47;;;21.90;;
24090;SDS011;12272;52.426;17.100;2022-11-04T19:31:34;33.97;;;20.27;;
24090;SDS011;12272;52.426;17.100;2022-11-04T19:36:37;29.03;;;18.20;;
24090;SDS011;12272;52.426;17.100;2022-11-04T19:41:40;25.83;;;17.73;;
24090;SDS011;12272;52.426;17.100;2022-11-04T19:47:01;26.23;;;16.87;;
24090;SDS011;12272;52.426;17.100;2022-11-04T19:52:05;28.33;;;19.10;;
24090;SDS011;12272;52.426;17.100;2022-11-04T19:57:08;28.83;;;19.47;;
24090;SDS011;12272;52.426;17.100;2022-11-04T20:02:13;31.70;;;21.30;;
24090;SDS011;12272;52.426;17.100;2022-11-04T20:07:16;27.23;;;17.43;;
24090;SDS011;12272;52.426;17.100;2022-11-04T20:12:20;27.83;;;18.80;;
24090;SDS011;12272;52.426;17.100;2022-11-04T20:17:41;28.13;;;19.13;;
24090;SDS011;12272;52.426;17.100;2022-11-04T20:22:44;25.50;;;17.53;;
24090;SDS011;12272;52.426;17.100;2022-11-04T20:27:46;39.93;;;22.03;;
24090;SDS011;12272;52.426;17.100;2022-11-04T20:32:49;42.97;;;23.33;;
24090;SDS011;12272;52.426;17.100;2022-11-04T20:37:52;34.87;;;21.43;;
24090;SDS011;12272;52.426;17.100;2022-11-04T20:42:55;34.07;;;23.73;;
24090;SDS011;12272;52.426;17.100;2022-11-04T20:47:57;36.37;;;23.57;;
24090;SDS011;12272;52.426;17.100;2022-11-04T20:53:00;39.47;;;24.77;;
24090;SDS011;12272;52.426;17.100;2022-11-04T20:58:02;27.80;;;18.80;;
24090;SDS011;12272;52.426;17.100;2022-11-04T21:03:05;35.43;;;23.13;;
24090;SDS011;12272;52.426;17.100;2022-11-04T21:08:08;25.63;;;16.73;;
24090;SDS011;12272;52.426;17.100;2022-11-04T21:13:11;24.43;;;16.80;;
24090;SDS011;12272;52.426;17.100;2022-11-04T21:18:13;28.63;;;17.27;;
24090;SDS011;12272;52.426;17.100;2022-11-04T21:23:16;24.50;;;17.33;;
24090;SDS011;12272;52.426;17.100;2022-11-04T21:28:21;22.40;;;16.57;;
24090;SDS011;12272;52.426;17.100;2022-11-04T21:33:24;23.97;;;17.97;;
24090;SDS011;12272;52.426;17.100;2022-11-04T21:38:26;26.73;;;17.60;;
24090;SDS011;12272;52.426;17.100;2022-11-04T21:43:30;25.57;;;16.43;;
24090;SDS011;12272;52.426;17.100;2022-11-04T21:48:33;32.17;;;20.67;;
24090;SDS011;12272;52.426;17.100;2022-11-04T21:53:36;33.17;;;22.40;;
24090;SDS011;12272;52.426;17.100;2022-11-04T21:58:40;22.60;;;16.17;;
24090;SDS011;12272;52.426;17.100;2022-11-04T22:03:47;22.43;;;17.23;;
24090;SDS011;12272;52.426;17.100;2022-11-04T22:08:54;33.07;;;20.97;;
24090;SDS011;12272;52.426;17.100;2022-11-04T22:13:58;25.03;;;17.63;;
24090;SDS011;12272;52.426;17.100;2022-11-04T22:19:02;30.57;;;21.73;;
24090;SDS011;12272;52.426;17.100;2022-11-04T22:24:13;22.43;;;16.30;;
24090;SDS011;12272;52.426;17.100;2022-11-04T22:29:17;22.67;;;15.77;;
24090;SDS011;12272;52.426;17.100;2022-11-04T22:34:19;24.27;;;16.10;;
24090;SDS011;12272;52.426;17.100;2022-11-04T22:39:22;38.60;;;25.10;;
24090;SDS011;12272;52.426;17.100;2022-11-04T22:44:24;22.10;;;15.67;;
24090;SDS011;12272;52.426;17.100;2022-11-04T22:49:27;28.87;;;20.33;;
24090;SDS011;12272;52.426;17.100;2022-11-04T22:54:29;21.63;;;16.13;;
24090;SDS011;12272;52.426;17.100;2022-11-04T22:59:32;25.43;;;17.33;;
24090;SDS011;12272;52.426;17.100;2022-11-04T23:04:34;20.93;;;15.47;;
24090;SDS011;12272;52.426;17.100;2022-11-04T23:09:38;26.43;;;18.00;;
24090;SDS011;12272;52.426;17.100;2022-11-04T23:15:01;25.60;;;17.27;;
24090;SDS011;12272;52.426;17.100;2022-11-04T23:20:22;25.97;;;17.93;;
24090;SDS011;12272;52.426;17.100;2022-11-04T23:25:28;26.47;;;17.50;;
24090;SDS011;12272;52.426;17.100;2022-11-04T23:30:32;30.73;;;19.80;;
24090;SDS011;12272;52.426;17.100;2022-11-04T23:35:40;19.80;;;15.00;;
24090;SDS011;12272;52.426;17.100;2022-11-04T23:41:06;24.33;;;18.10;;
24090;SDS011;12272;52.426;17.100;2022-11-04T23:46:27;23.13;;;16.13;;
24090;SDS011;12272;52.426;17.100;2022-11-04T23:51:48;30.03;;;18.73;;
24090;SDS011;12272;52.426;17.100;2022-11-04T23:57:17;23.60;;;17.60;;
